IL14 weather

Stark Heliport
Bloomington, Illinois, United States

Public forecast

Using degrees Fahrenheit for public forecast. Weather courtesy of forecast.io.

Closest aviation weather report (METAR) to Stark Heliport

Closest report is Central Illinois Regional Airport at Bloomington-Normal, 4.8 nm (9.0 km) E. Retrieved 2020/07/13 06:56 UTC (47 minutes ago):

KBMI 130656Z AUTO 00000KT 10SM CLR 18/16 A2999 RMK AO2 SLP148 T01830161

Closest aviation forecast (TAF) to Stark Heliport

Closest forecast is Central Illinois Regional Airport at Bloomington-Normal, 4.8 nm (9.0 km) E. Retrieved 2020/07/13 06:22 UTC (1 hour ago):

TAF KBMI 130520Z 1306/1406 VRB05KT P6SM SKC FM131700 08006KT P6SM SCT050 FM140000 10004KT P6SM SKC